Time;durP1;ratioP1;P1;durP2;ratioP2;P2;SDS_P1;SDS_P2;PMS_P1;PMS_P2;Temp;Humidity;BMP_temperature;BMP_pressure;BME280_temperature;BME280_humidity;BME280_pressure;Samples;Min_cycle;Max_cycle;Signal;HPM_P1;HPM_P2
2022/01/08 00:01:11;;;;;;;2.15;1.40;;;;;;;-4.93;58.18;99410.66;5094600;28;20386;-70
2022/01/08 00:03:38;;;;;;;3.75;1.77;;;;;;;-4.93;58.15;99431.56;5109621;28;20081;-70
2022/01/08 00:06:04;;;;;;;3.58;1.88;;;;;;;-4.96;58.34;99437.69;5093578;28;20069;-70
2022/01/08 00:08:30;;;;;;;3.90;1.65;;;;;;;-4.98;59.03;99434.25;5092743;28;20396;-68
2022/01/08 00:10:55;;;;;;;2.90;1.67;;;;;;;-4.99;58.80;99440.38;5092305;28;20039;-69
2022/01/08 00:13:21;;;;;;;3.03;1.80;;;;;;;-4.96;58.41;99435.09;5092461;28;20032;-69
2022/01/08 00:15:47;;;;;;;2.92;1.45;;;;;;;-4.94;58.64;99448.13;5092800;28;20118;-69
2022/01/08 00:18:13;;;;;;;2.53;1.65;;;;;;;-4.95;58.47;99462.91;5074018;28;20024;-70
2022/01/08 00:20:38;;;;;;;4.03;1.58;;;;;;;-4.96;58.72;99457.75;5077976;28;20056;-67
2022/01/08 00:23:04;;;;;;;4.07;1.50;;;;;;;-4.88;58.72;99471.47;5069303;28;20029;-68
2022/01/08 00:25:29;;;;;;;4.20;1.90;;;;;;;-5.08;58.58;99430.16;5070023;28;20036;-70
2022/01/08 00:27:55;;;;;;;3.35;1.70;;;;;;;-5.06;58.69;99438.81;5069109;28;20028;-68
2022/01/08 00:30:21;;;;;;;3.30;1.83;;;;;;;-4.91;59.17;99461.97;5069926;28;20033;-69
2022/01/08 00:32:47;;;;;;;3.15;2.13;;;;;;;-4.96;59.27;99458.59;5070486;28;20027;-69
2022/01/08 00:35:13;;;;;;;2.58;1.40;;;;;;;-4.82;59.11;99479.19;5069942;28;20029;-70
2022/01/08 00:37:39;;;;;;;2.90;1.75;;;;;;;-4.82;59.66;99489.63;5069538;28;20393;-70
2022/01/08 00:40:09;;;;;;;2.55;1.77;;;;;;;-4.75;58.98;99492.94;5071389;28;20093;-67
2022/01/08 00:42:35;;;;;;;4.20;1.90;;;;;;;-4.68;58.87;99493.66;5072338;28;20040;-70
2022/01/08 00:45:01;;;;;;;3.38;1.80;;;;;;;-4.76;59.09;99491.22;5072177;28;20090;-69
2022/01/08 00:47:26;;;;;;;4.28;1.80;;;;;;;-4.73;59.42;99480.69;5071532;28;20032;-70
2022/01/08 00:49:52;;;;;;;3.78;1.77;;;;;;;-4.77;59.31;99484.28;5070061;28;20410;-70
2022/01/08 00:52:17;;;;;;;2.20;1.50;;;;;;;-4.73;59.27;99498.16;5071822;28;20371;-69
2022/01/08 00:54:43;;;;;;;2.53;1.50;;;;;;;-4.78;58.34;99493.88;5071777;28;20076;-67
2022/01/08 00:57:09;;;;;;;2.05;1.45;;;;;;;-4.88;58.15;99501.97;5071292;28;20063;-68
2022/01/08 00:59:34;;;;;;;3.70;1.42;;;;;;;-4.92;57.88;99499.44;5071550;28;20382;-67
2022/01/08 01:02:00;;;;;;;2.58;1.40;;;;;;;-4.97;57.72;99497.81;5072006;28;20027;-69
2022/01/08 01:04:26;;;;;;;2.72;1.33;;;;;;;-5.10;57.63;99511.13;5070362;28;20540;-71
2022/01/08 01:06:52;;;;;;;2.05;1.25;;;;;;;-5.25;57.35;99495.78;5071270;28;20024;-70
2022/01/08 01:09:17;;;;;;;2.08;1.17;;;;;;;-5.34;57.75;99487.25;5070968;28;20123;-70
2022/01/08 01:11:43;;;;;;;1.42;1.15;;;;;;;-5.38;57.28;99503.88;5070709;28;20481;-69
2022/01/08 01:14:08;;;;;;;3.90;1.50;;;;;;;-5.38;57.63;99498.66;5071528;28;20036;-71
2022/01/08 01:16:34;;;;;;;1.33;0.95;;;;;;;-5.47;56.50;99473.59;5071188;28;20035;-70
2022/01/08 01:19:00;;;;;;;2.75;1.30;;;;;;;-5.19;56.69;99524.38;5071081;28;20549;-68
2022/01/08 01:21:26;;;;;;;1.05;0.95;;;;;;;-5.09;56.42;99541.53;5071800;28;20393;-70
2022/01/08 01:23:53;;;;;;;2.42;1.48;;;;;;;-4.97;56.15;99544.81;5069953;28;20031;-70
2022/01/08 01:26:23;;;;;;;1.38;1.00;;;;;;;-4.95;55.91;99543.03;5070907;28;20051;-70
2022/01/08 01:29:01;;;;;;;1.50;1.00;;;;;;;-4.88;55.51;99555.03;5070844;28;20056;-69
2022/01/08 01:42:21;;;;;;;3.28;1.15;;;;;;;-4.82;55.25;99539.25;5070710;28;20375;-67
2022/01/08 01:47:35;;;;;;;1.45;1.00;;;;;;;-4.63;54.82;99589.34;5071316;28;20304;-69
2022/01/08 01:50:02;;;;;;;1.70;1.30;;;;;;;-4.65;55.07;99579.78;5069394;28;20048;-71
2022/01/08 01:52:30;;;;;;;2.67;1.23;;;;;;;-4.82;54.41;99567.13;5070804;28;20072;-69
2022/01/08 01:54:55;;;;;;;1.98;0.93;;;;;;;-4.64;54.84;99582.38;5071081;28;20047;-69
2022/01/08 01:57:21;;;;;;;1.42;1.20;;;;;;;-4.62;54.47;99587.56;5070645;28;20032;-70
2022/01/08 01:59:46;;;;;;;1.75;1.05;;;;;;;-4.67;54.34;99590.31;5070768;28;20386;-70
2022/01/08 02:02:12;;;;;;;2.33;1.40;;;;;;;-4.57;54.31;99604.03;5071259;28;20029;-70
2022/01/08 02:04:37;;;;;;;3.25;1.30;;;;;;;-4.60;54.93;99604.06;5069045;28;20073;-70
2022/01/08 02:07:03;;;;;;;2.33;1.27;;;;;;;-4.51;54.57;99616.06;5070600;28;20032;-71
2022/01/08 02:09:29;;;;;;;2.53;1.50;;;;;;;-4.52;54.56;99620.44;5071372;28;20382;-71
2022/01/08 02:12:06;;;;;;;3.10;1.20;;;;;;;-4.42;54.38;99625.47;5084286;28;20021;-70
2022/01/08 02:14:34;;;;;;;2.85;1.60;;;;;;;-4.36;54.66;99630.53;5070553;28;20286;-70
2022/01/08 02:17:00;;;;;;;1.50;1.02;;;;;;;-4.28;54.57;99623.41;5069373;28;20063;-69
2022/01/08 02:19:26;;;;;;;3.08;1.48;;;;;;;-4.45;54.28;99623.78;5069781;28;20123;-68
2022/01/08 02:21:55;;;;;;;2.33;1.63;;;;;;;-4.41;54.60;99627.19;5070295;28;20029;-67
2022/01/08 02:24:22;;;;;;;3.92;1.48;;;;;;;-4.43;54.49;99642.03;5070351;28;20029;-71
2022/01/08 02:26:48;;;;;;;2.35;1.23;;;;;;;-4.42;54.57;99641.13;5070978;28;20102;-70
2022/01/08 02:29:15;;;;;;;2.08;1.30;;;;;;;-4.40;54.79;99652.41;5070995;28;20418;-71
2022/01/08 02:31:51;;;;;;;2.60;1.63;;;;;;;-4.46;54.74;99653.44;5070269;28;20055;-69
2022/01/08 02:34:16;;;;;;;;;;;;;;;-4.32;55.38;99655.75;5070707;28;20378;-69
2022/01/08 02:36:42;;;;;;;2.10;1.33;;;;;;;-4.41;54.57;99663.78;5070900;28;20011;-69
2022/01/08 02:39:08;;;;;;;1.95;1.30;;;;;;;-4.45;54.48;99664.72;5070884;28;20032;-65
2022/01/08 02:41:33;;;;;;;2.08;1.40;;;;;;;-4.47;54.99;99664.75;5070140;28;20029;-70
2022/01/08 02:43:59;;;;;;;3.10;1.80;;;;;;;-4.43;55.28;99662.94;5068832;28;20032;-69
2022/01/08 02:46:24;;;;;;;2.47;1.52;;;;;;;-4.42;54.54;99672.50;5070385;28;20060;-69
2022/01/08 02:48:50;;;;;;;2.60;1.42;;;;;;;-4.47;54.95;99668.25;5070676;28;20119;-69
2022/01/08 02:51:16;;;;;;;4.32;1.67;;;;;;;-4.41;55.44;99663.78;5073381;28;20044;-69
2022/01/08 02:53:41;;;;;;;2.45;1.60;;;;;;;-4.53;55.28;99649.22;5073891;28;20036;-68
2022/01/08 02:56:07;;;;;;;2.83;1.80;;;;;;;-4.42;54.91;99672.50;5074174;28;20048;-69
2022/01/08 02:58:33;;;;;;;1.85;1.23;;;;;;;-4.43;55.63;99689.09;5074335;28;20070;-69
2022/01/08 03:00:59;;;;;;;2.38;1.58;;;;;;;-4.45;55.78;99693.47;5073739;28;20056;-68
2022/01/08 03:03:24;;;;;;;3.35;1.75;;;;;;;-4.45;56.01;99690.88;5073473;28;20039;-69
2022/01/08 03:05:50;;;;;;;3.03;1.70;;;;;;;-4.62;56.18;99668.56;5073973;28;20036;-70
2022/01/08 03:08:16;;;;;;;2.83;1.58;;;;;;;-4.43;55.56;99697.78;5073865;28;20058;-70
2022/01/08 03:10:42;;;;;;;2.28;1.45;;;;;;;-4.43;56.24;99703.03;5072327;28;20108;-68
2022/01/08 03:13:08;;;;;;;2.10;1.70;;;;;;;-4.43;55.69;99702.16;5073780;28;20024;-70
2022/01/08 03:15:36;;;;;;;2.50;1.55;;;;;;;-4.37;56.27;99717.69;5073899;28;20036;-70
2022/01/08 03:18:03;;;;;;;3.83;1.80;;;;;;;-4.36;55.98;99711.56;5073693;28;20466;-70
2022/01/08 03:20:30;;;;;;;1.98;1.52;;;;;;;-4.28;56.05;99721.88;5073268;28;20036;-69
2022/01/08 03:23:02;;;;;;;2.10;1.75;;;;;;;-4.29;56.07;99714.91;5071910;28;20036;-69
2022/01/08 03:25:28;;;;;;;3.85;1.50;;;;;;;-4.22;56.09;99727.84;5073058;28;20465;-70
2022/01/08 03:27:54;;;;;;;5.78;1.27;;;;;;;-4.22;55.98;99733.06;5073095;28;20025;-69
2022/01/08 03:30:20;;;;;;;3.80;1.70;;;;;;;-4.24;56.26;99733.97;5073178;28;20033;-70
2022/01/08 03:32:46;;;;;;;2.55;1.50;;;;;;;-4.25;56.35;99738.38;5072805;28;20059;-71
2022/01/08 03:35:11;;;;;;;4.47;1.40;;;;;;;-4.27;56.58;99736.66;5073050;28;20104;-67
2022/01/08 03:37:37;;;;;;;2.38;1.48;;;;;;;-4.33;56.65;99729.84;5072929;28;20029;-71
2022/01/08 03:40:05;;;;;;;3.47;1.42;;;;;;;-4.34;56.67;99739.41;5072855;28;20099;-69
2022/01/08 03:42:30;;;;;;;2.15;1.08;;;;;;;-4.27;57.03;99749.72;5073130;28;20033;-69
2022/01/08 03:44:56;;;;;;;2.33;1.40;;;;;;;-4.32;57.63;99748.06;5072627;28;20029;-69
2022/01/08 03:49:54;;;;;;;2.20;1.30;;;;;;;-4.33;57.90;99759.44;5072696;28;20052;-66
2022/01/08 03:52:20;;;;;;;3.58;1.60;;;;;;;-4.45;58.14;99740.53;5072479;28;20043;-68
2022/01/08 03:54:45;;;;;;;3.53;1.58;;;;;;;-4.48;57.74;99731.84;5071254;28;20036;-68
2022/01/08 03:57:11;;;;;;;2.30;1.30;;;;;;;-4.29;58.08;99757.63;5073235;28;20482;-69
2022/01/08 03:59:36;;;;;;;2.65;1.38;;;;;;;-4.33;57.61;99754.19;5072645;28;20035;-68
2022/01/08 04:02:02;;;;;;;2.67;1.27;;;;;;;-4.25;57.80;99769.72;5071609;28;20058;-69
2022/01/08 04:04:28;;;;;;;1.92;1.30;;;;;;;-4.22;58.09;99772.28;5072699;28;20460;-69
2022/01/08 04:06:53;;;;;;;2.20;1.25;;;;;;;-4.22;57.89;99763.56;5072346;28;20058;-69
2022/01/08 04:09:19;;;;;;;1.73;1.00;;;;;;;-4.35;57.98;99739.44;5072033;28;20119;-69
2022/01/08 04:11:45;;;;;;;1.63;1.20;;;;;;;-4.36;58.04;99751.66;5072588;28;20036;-67
2022/01/08 04:14:12;;;;;;;1.30;1.00;;;;;;;-4.20;58.04;99782.72;5073281;28;20085;-70
2022/01/08 04:16:42;;;;;;;1.75;1.05;;;;;;;-4.44;58.14;99757.94;5072718;28;20029;-70
2022/01/08 04:19:07;;;;;;;3.30;1.17;;;;;;;-4.34;58.38;99780.34;5072655;28;20370;-70
2022/01/08 04:24:05;;;;;;;4.13;1.00;;;;;;;-4.40;57.74;99780.50;5074952;28;20198;-68
2022/01/08 04:26:31;;;;;;;1.50;1.20;;;;;;;-4.72;58.19;99748.00;5071819;28;20029;-69
2022/01/08 04:28:56;;;;;;;4.22;1.30;;;;;;;-4.46;57.20;99794.56;5071611;28;20036;-68
2022/01/08 04:31:23;;;;;;;2.60;1.10;;;;;;;-4.68;57.65;99771.44;5072327;28;20032;-69
2022/01/08 04:33:49;;;;;;;2.22;1.00;;;;;;;-4.44;57.06;99799.75;5072521;28;20028;-69
2022/01/08 04:36:15;;;;;;;1.90;1.10;;;;;;;-4.39;56.94;99784.81;5071557;28;20032;-65
2022/01/08 04:38:41;;;;;;;2.60;1.15;;;;;;;-4.39;56.95;99792.66;5071434;28;20408;-69
2022/01/08 04:41:06;;;;;;;1.85;1.20;;;;;;;-4.37;57.22;99798.72;5070365;28;20120;-67
2022/01/08 04:43:33;;;;;;;2.28;1.30;;;;;;;-4.41;57.05;99794.44;5070714;28;20575;-69
2022/01/08 04:45:59;;;;;;;3.30;1.23;;;;;;;-4.28;57.13;99816.84;5071620;28;20101;-68
2022/01/08 04:48:24;;;;;;;3.17;1.27;;;;;;;-4.25;57.34;99810.69;5070859;28;20462;-69
2022/01/08 04:50:50;;;;;;;1.70;1.13;;;;;;;-4.21;57.10;99812.38;5071772;28;20044;-68
2022/01/08 04:53:16;;;;;;;2.85;1.27;;;;;;;-4.16;56.58;99825.34;5072014;28;20044;-66
2022/01/08 04:55:41;;;;;;;1.88;1.25;;;;;;;-4.19;56.67;99816.66;5071912;28;20028;-70
2022/01/08 04:58:07;;;;;;;1.75;1.08;;;;;;;-4.13;56.75;99820.03;5071029;28;20028;-69
2022/01/08 05:00:33;;;;;;;1.55;1.10;;;;;;;-4.07;57.50;99831.25;5071509;28;20374;-70
2022/01/08 05:03:00;;;;;;;1.20;0.90;;;;;;;-4.19;56.85;99800.97;5071965;28;20025;-70
2022/01/08 05:05:26;;;;;;;3.78;1.45;;;;;;;-4.01;56.68;99829.38;5071402;28;20461;-70
2022/01/08 05:07:52;;;;;;;2.30;1.10;;;;;;;-4.01;57.46;99845.94;5070894;28;20024;-69
2022/01/08 05:10:18;;;;;;;4.57;1.23;;;;;;;-3.99;57.09;99838.06;5071042;28;20025;-68
2022/01/08 05:12:43;;;;;;;2.05;1.10;;;;;;;-3.99;57.38;99845.91;5071056;28;20033;-69
2022/01/08 05:15:10;;;;;;;2.65;1.52;;;;;;;-3.96;57.77;99856.34;5070943;28;20029;-70
2022/01/08 05:17:36;;;;;;;2.45;1.55;;;;;;;-3.97;57.44;99865.91;5069587;28;20401;-67
2022/01/08 05:20:14;;;;;;;3.58;1.33;;;;;;;-3.93;57.84;99869.34;5070866;28;20456;-70
2022/01/08 05:22:52;;;;;;;2.83;1.70;;;;;;;-3.90;57.79;99870.13;5070775;28;20028;-69
2022/01/08 05:25:21;;;;;;;2.13;1.45;;;;;;;-3.91;58.12;99863.16;5070865;28;20024;-68
2022/01/08 05:27:48;;;;;;;2.58;1.10;;;;;;;-3.83;58.20;99880.47;5071181;28;20036;-70
2022/01/08 05:30:16;;;;;;;1.70;1.05;;;;;;;-3.91;58.02;99868.41;5071273;28;20121;-70
2022/01/08 05:32:42;;;;;;;2.35;1.10;;;;;;;-4.00;57.79;99860.75;5071016;28;20461;-70
2022/01/08 05:35:08;;;;;;;1.65;1.10;;;;;;;-3.95;58.48;99892.06;5070754;28;20270;-70
2022/01/08 05:37:34;;;;;;;2.05;1.02;;;;;;;-3.99;59.06;99896.47;5071371;28;20036;-70
2022/01/08 05:40:00;;;;;;;1.88;0.93;;;;;;;-3.92;58.69;99895.44;5070418;28;20374;-71
2022/01/08 05:42:25;;;;;;;1.67;1.17;;;;;;;-3.97;59.26;99886.84;5070729;28;20032;-71
2022/01/08 05:44:51;;;;;;;1.65;1.15;;;;;;;-3.93;59.32;99905.97;5071125;28;20036;-69
2022/01/08 05:47:16;;;;;;;2.63;1.10;;;;;;;-3.92;58.93;99911.16;5070755;28;20028;-70
2022/01/08 05:49:42;;;;;;;1.00;0.90;;;;;;;-4.09;59.43;99889.72;5070556;28;20394;-70
2022/01/08 05:52:07;;;;;;;1.85;1.10;;;;;;;-3.88;59.51;99925.03;5070826;28;20044;-70
2022/01/08 05:54:34;;;;;;;1.60;0.93;;;;;;;-3.91;58.87;99925.09;5070590;28;20033;-70
2022/01/08 05:57:00;;;;;;;6.07;0.88;;;;;;;-3.96;58.99;99933.03;5070364;28;20040;-70
2022/01/08 05:59:26;;;;;;;1.90;0.95;;;;;;;-4.09;59.67;99900.16;5070636;28;20033;-69
2022/01/08 06:01:56;;;;;;;2.28;0.80;;;;;;;-3.89;59.32;99925.94;5071092;28;20107;-69
2022/01/08 06:04:22;;;;;;;1.13;0.77;;;;;;;-3.87;59.13;99931.13;5070722;28;20025;-70
2022/01/08 06:06:47;;;;;;;2.70;0.95;;;;;;;-3.94;58.54;99912.09;5076060;28;20348;-64
2022/01/08 06:09:13;;;;;;;1.45;0.70;;;;;;;-3.80;59.07;99935.34;5076131;28;20039;-69
2022/01/08 06:11:38;;;;;;;1.15;0.88;;;;;;;-3.76;58.39;99939.63;5070691;28;20078;-67
2022/01/08 06:14:04;;;;;;;3.30;1.13;;;;;;;-3.68;58.25;99949.94;5070012;28;20466;-66
2022/01/08 06:16:34;;;;;;;3.75;1.40;;;;;;;-3.63;58.65;99954.19;5068727;28;20024;-70
2022/01/08 06:19:08;;;;;;;1.85;0.88;;;;;;;-3.59;58.04;99964.59;5069352;28;20028;-71
2022/01/08 06:21:33;;;;;;;2.90;1.08;;;;;;;-3.56;58.26;99960.16;5069877;28;20021;-69
2022/01/08 06:23:59;;;;;;;1.67;0.90;;;;;;;-3.52;58.43;99974.91;5071538;28;20032;-73
2022/01/08 06:26:24;;;;;;;2.75;1.08;;;;;;;-3.48;58.31;99967.84;5074640;28;20394;-71
2022/01/08 06:28:51;;;;;;;1.50;0.75;;;;;;;-3.46;58.03;99972.19;5074933;28;20032;-67
2022/01/08 06:31:19;;;;;;;2.85;0.80;;;;;;;-3.41;58.66;99979.06;5085042;28;20024;-77
2022/01/08 06:33:45;;;;;;;2.17;0.90;;;;;;;-3.39;59.16;99974.66;5077081;28;20036;-67
2022/01/08 06:36:11;;;;;;;1.35;0.88;;;;;;;-3.35;58.89;99977.19;5073183;28;20032;-75
2022/01/08 06:38:36;;;;;;;2.35;1.17;;;;;;;-3.32;59.42;99984.97;5073739;28;20085;-75
2022/01/08 06:41:02;;;;;;;1.85;0.88;;;;;;;-3.32;59.31;99974.50;5074489;28;20077;-74
2022/01/08 06:43:27;;;;;;;2.15;1.30;;;;;;;-3.38;59.14;99958.91;5073970;28;20032;-74
2022/01/08 06:45:53;;;;;;;4.65;1.10;;;;;;;-3.23;59.24;99969.97;5074232;28;20105;-75
2022/01/08 06:48:18;;;;;;;4.45;1.05;;;;;;;-3.13;58.60;99979.38;5074483;28;20149;-72
2022/01/08 06:50:44;;;;;;;1.83;0.63;;;;;;;-3.10;58.11;99981.91;5077470;28;20052;-74
2022/01/08 06:53:09;;;;;;;2.83;0.80;;;;;;;-3.08;57.80;99980.13;5077603;28;20463;-74
2022/01/08 06:55:35;;;;;;;2.42;0.73;;;;;;;-3.09;56.89;99983.63;5076607;28;20043;-75
2022/01/08 06:58:01;;;;;;;3.15;0.60;;;;;;;-3.10;56.58;100000.25;5074683;28;20033;-75
2022/01/08 07:00:26;;;;;;;2.92;0.90;;;;;;;-3.11;56.26;99990.66;5072626;28;20038;-73
2022/01/08 07:02:52;;;;;;;2.40;0.63;;;;;;;-3.09;56.03;99993.22;5072395;28;20117;-73
2022/01/08 07:05:18;;;;;;;1.00;0.60;;;;;;;-3.04;55.63;100007.09;5073200;28;20040;-73
2022/01/08 07:07:43;;;;;;;1.45;0.68;;;;;;;-3.05;55.08;100006.25;5073519;28;20032;-73
2022/01/08 07:10:09;;;;;;;1.10;0.57;;;;;;;-2.98;54.95;100016.56;5073057;28;20028;-73
2022/01/08 07:12:35;;;;;;;0.70;0.52;;;;;;;-2.90;55.36;100009.41;5073401;28;20078;-73
2022/01/08 07:15:01;;;;;;;1.55;0.70;;;;;;;-2.84;55.19;100022.38;5073131;28;20037;-74
2022/01/08 07:17:27;;;;;;;1.90;1.10;;;;;;;-2.76;54.74;100014.38;5072928;28;20123;-72
2022/01/08 07:19:52;;;;;;;3.15;0.80;;;;;;;-2.67;54.53;100018.50;5073636;28;20060;-74
2022/01/08 07:22:19;;;;;;;1.45;0.80;;;;;;;-2.63;54.33;100025.44;5073130;28;20348;-74
2022/01/08 07:24:44;;;;;;;1.30;0.60;;;;;;;-2.56;54.38;100019.13;5072874;28;20033;-69
2022/01/08 07:27:10;;;;;;;1.63;0.90;;;;;;;-2.54;54.63;100037.44;5073097;28;20536;-72
2022/01/08 07:29:35;;;;;;;4.53;0.77;;;;;;;-2.53;54.66;100028.66;5072828;28;20120;-71
2022/01/08 07:32:01;;;;;;;1.77;0.80;;;;;;;-2.47;54.56;100044.28;5072541;28;20413;-72
2022/01/08 07:34:26;;;;;;;3.53;0.80;;;;;;;-2.58;54.74;100038.41;5072840;28;20071;-71
2022/01/08 07:36:52;;;;;;;1.60;0.88;;;;;;;-2.64;55.14;100031.56;5072125;28;20067;-69
2022/01/08 07:39:17;;;;;;;1.70;0.90;;;;;;;-2.48;54.65;100043.41;5072707;28;20390;-73
2022/01/08 07:41:43;;;;;;;4.75;1.05;;;;;;;-2.47;54.82;100042.50;5072918;28;20074;-72
2022/01/08 07:44:08;;;;;;;2.45;0.85;;;;;;;-2.48;55.02;100059.13;5072331;28;20082;-64
2022/01/08 07:46:34;;;;;;;2.85;1.30;;;;;;;-2.53;55.02;100050.53;5068888;28;20389;-72
2022/01/08 07:49:00;;;;;;;2.50;0.90;;;;;;;-2.66;55.46;100028.09;5072139;28;20136;-70
2022/01/08 07:51:25;;;;;;;1.58;0.77;;;;;;;-2.44;55.13;100070.44;5072525;28;20055;-67
2022/01/08 07:53:51;;;;;;;1.40;0.70;;;;;;;-2.66;55.88;100038.56;5065137;28;20029;-72
2022/01/08 07:56:16;;;;;;;1.23;0.82;;;;;;;-2.54;56.33;100067.16;5070352;28;20414;-69
2022/01/08 07:58:42;;;;;;;1.52;0.75;;;;;;;-2.48;55.83;100069.63;5051445;28;20033;-67
2022/01/08 08:01:07;;;;;;;1.85;1.02;;;;;;;-2.43;55.62;100082.63;5070293;28;20034;-71
2022/01/08 08:03:33;;;;;;;1.80;0.75;;;;;;;-2.42;56.35;100081.75;5070502;28;20036;-72
2022/01/08 08:05:58;;;;;;;1.77;1.00;;;;;;;-2.35;55.74;100069.34;5072220;28;20029;-67
2022/01/08 08:08:24;;;;;;;2.47;0.77;;;;;;;-2.21;55.79;100075.13;5071358;28;20123;-69
2022/01/08 08:10:50;;;;;;;4.25;0.93;;;;;;;-2.07;55.39;100068.69;5071356;28;20033;-62
2022/01/08 08:13:21;;;;;;;1.63;1.05;;;;;;;-1.80;54.58;100068.88;5071852;28;20028;-71
2022/01/08 08:15:48;;;;;;;2.63;0.88;;;;;;;-1.77;53.81;100050.44;5072018;28;20093;-70
2022/01/08 08:18:14;;;;;;;1.08;0.85;;;;;;;-1.56;52.99;100084.91;5071334;28;20032;-69
2022/01/08 08:20:40;;;;;;;2.53;0.77;;;;;;;-1.68;52.72;100084.34;5071279;28;20032;-71
2022/01/08 08:23:06;;;;;;;1.63;0.75;;;;;;;-1.76;53.04;100089.78;5072468;28;20394;-70
2022/01/08 08:25:32;;;;;;;2.65;1.23;;;;;;;-1.94;53.00;100096.34;5071832;28;20033;-69
2022/01/08 08:27:58;;;;;;;2.40;1.05;;;;;;;-1.99;53.38;100089.50;5070019;28;20033;-66
2022/01/08 08:30:23;;;;;;;3.92;1.42;;;;;;;-1.97;53.74;100091.16;5072451;28;20504;-69
2022/01/08 08:32:49;;;;;;;2.05;1.05;;;;;;;-1.67;53.38;100093.06;5071000;28;20024;-68
2022/01/08 08:35:15;;;;;;;1.08;0.68;;;;;;;-1.35;52.51;100094.84;5072310;28;20028;-68
2022/01/08 08:37:41;;;;;;;3.55;1.15;;;;;;;-1.10;52.14;100086.28;5072013;28;20055;-68
2022/01/08 08:40:12;;;;;;;3.92;1.20;;;;;;;-0.62;51.35;100087.50;5072126;28;20060;-67
2022/01/08 08:42:37;;;;;;;1.35;0.90;;;;;;;-0.35;49.67;100091.97;5072617;28;20048;-68
2022/01/08 08:45:04;;;;;;;1.55;0.70;;;;;;;-0.21;50.05;100088.91;5071911;28;20033;-69
2022/01/08 08:47:31;;;;;;;1.65;0.85;;;;;;;-0.10;49.04;100085.94;5070625;28;20458;-68
2022/01/08 08:49:58;;;;;;;2.33;1.00;;;;;;;0.06;49.86;100097.69;5071447;28;20059;-68
2022/01/08 08:52:24;;;;;;;3.58;1.25;;;;;;;0.17;48.52;100083.31;5072160;28;20119;-68
2022/01/08 08:54:50;;;;;;;6.80;1.15;;;;;;;0.37;48.28;100093.19;5071942;28;20120;-67
2022/01/08 08:57:16;;;;;;;1.83;0.90;;;;;;;0.24;47.93;100087.44;5071122;28;20033;-68
2022/01/08 08:59:41;;;;;;;1.80;0.75;;;;;;;0.14;48.54;100094.81;5071009;28;20036;-69
2022/01/08 09:02:07;;;;;;;2.25;0.95;;;;;;;0.11;49.22;100098.41;5071418;28;20416;-70
2022/01/08 09:04:33;;;;;;;2.47;1.17;;;;;;;0.20;48.31;100089.34;5070165;28;20055;-68
2022/01/08 09:06:59;;;;;;;4.20;1.25;;;;;;;0.38;48.31;100095.75;5070911;28;20032;-69
2022/01/08 09:09:25;;;;;;;3.78;1.90;;;;;;;0.50;47.79;100106.81;5070959;28;20033;-69
2022/01/08 09:11:50;;;;;;;1.83;1.00;;;;;;;0.20;47.85;100085.84;5070929;28;20040;-69
2022/01/08 09:14:16;;;;;;;2.80;0.90;;;;;;;0.21;48.35;100111.25;5070829;28;20097;-68
2022/01/08 09:16:48;;;;;;;2.50;0.70;;;;;;;0.17;48.86;100117.53;5069824;28;20033;-67
2022/01/08 09:19:14;;;;;;;1.38;1.00;;;;;;;0.04;47.94;100119.72;5070744;28;20035;-70
2022/01/08 09:21:40;;;;;;;2.03;0.90;;;;;;;-0.12;49.04;100124.63;5069843;28;20382;-69
2022/01/08 09:24:06;;;;;;;3.60;0.85;;;;;;;-0.08;48.50;100131.50;5070473;28;20442;-68
2022/01/08 09:26:32;;;;;;;2.22;0.90;;;;;;;-0.27;48.76;100124.16;5070831;28;20078;-66
2022/01/08 09:28:57;;;;;;;2.35;0.80;;;;;;;-0.39;49.57;100135.94;5071196;28;20423;-69
2022/01/08 09:31:23;;;;;;;3.70;0.93;;;;;;;-0.46;50.10;100135.28;5070640;28;20498;-68
2022/01/08 09:33:48;;;;;;;3.05;0.90;;;;;;;-0.50;50.25;100124.88;5069275;28;20032;-68
2022/01/08 09:36:14;;;;;;;2.20;0.88;;;;;;;-0.44;50.30;100140.47;5071054;28;20067;-70
2022/01/08 09:38:40;;;;;;;4.78;1.00;;;;;;;-0.57;49.76;100129.47;5070856;28;20112;-67
2022/01/08 09:41:05;;;;;;;3.10;1.10;;;;;;;-1.02;50.59;100112.34;5070594;28;20111;-69
2022/01/08 09:43:32;;;;;;;2.17;1.00;;;;;;;-1.21;51.57;100143.50;5071526;28;20028;-69
2022/01/08 09:45:58;;;;;;;3.20;1.10;;;;;;;-1.44;52.45;100150.25;5070792;28;20058;-67
2022/01/08 09:48:23;;;;;;;2.33;0.90;;;;;;;-1.59;51.88;100148.84;5069297;28;20032;-68
2022/01/08 09:50:49;;;;;;;4.15;1.20;;;;;;;-1.84;52.21;100119.75;5070923;28;20090;-68
2022/01/08 09:53:14;;;;;;;2.67;1.00;;;;;;;-1.64;52.42;100154.25;5069644;28;20032;-68
2022/01/08 09:55:40;;;;;;;5.22;0.93;;;;;;;-1.64;52.62;100164.75;5070547;28;20070;-68
2022/01/08 09:58:06;;;;;;;4.13;0.90;;;;;;;-1.82;53.10;100141.56;5070455;28;20060;-68
2022/01/08 10:00:34;;;;;;;3.40;1.30;;;;;;;-1.63;53.06;100157.72;5075287;28;20082;-68
2022/01/08 10:03:17;;;;;;;1.98;1.05;;;;;;;-1.49;53.11;100167.88;5073123;28;20166;-67
2022/01/08 10:05:49;;;;;;;2.42;1.40;;;;;;;-1.48;53.12;100172.22;5072542;28;20720;-66
2022/01/08 10:08:17;;;;;;;2.90;1.00;;;;;;;-1.48;52.82;100172.22;5073181;28;20082;-67
2022/01/08 10:10:58;;;;;;;5.47;1.30;;;;;;;-1.48;52.84;100175.72;5073181;28;20029;-68
2022/01/08 10:13:32;;;;;;;4.93;1.20;;;;;;;-1.51;52.91;100165.31;5072639;28;20409;-67
2022/01/08 10:18:43;;;;;;;3.40;1.05;;;;;;;-1.38;52.27;100175.47;5073081;28;20033;-68
2022/01/08 10:21:18;;;;;;;3.05;0.95;;;;;;;-1.36;53.18;100184.19;5074627;28;20056;-68
2022/01/08 10:23:48;;;;;;;2.00;1.10;;;;;;;-1.33;52.65;100184.09;5074354;28;20029;-69
2022/01/08 10:26:17;;;;;;;4.72;1.33;;;;;;;-1.28;52.77;100192.75;5074367;28;20139;-69
2022/01/08 10:28:54;;;;;;;5.13;1.10;;;;;;;-1.35;52.47;100184.16;5075092;28;20024;-69
2022/01/08 10:31:36;;;;;;;4.80;1.27;;;;;;;-1.24;52.47;100189.13;5074601;28;20028;-69
2022/01/08 10:34:06;;;;;;;2.33;1.00;;;;;;;-1.32;52.29;100189.31;5074448;28;20025;-68
2022/01/08 10:36:33;;;;;;;3.50;1.25;;;;;;;-1.32;52.22;100197.22;5074625;28;20115;-69
2022/01/08 10:39:07;;;;;;;3.65;1.30;;;;;;;-1.28;53.18;100191.88;5074634;28;20036;-69
2022/01/08 10:41:39;;;;;;;3.88;1.27;;;;;;;-1.30;52.73;100190.16;5073240;28;20398;-70
2022/01/08 10:44:20;;;;;;;2.70;1.33;;;;;;;-1.26;52.71;100187.44;5074286;28;20032;-69
2022/01/08 10:47:01;;;;;;;2.40;1.10;;;;;;;-1.20;53.01;100197.81;5072758;28;20043;-68
2022/01/08 10:49:46;;;;;;;6.03;1.50;;;;;;;-1.18;53.08;100190.75;5074484;28;20052;-68
2022/01/08 10:52:14;;;;;;;2.05;1.33;;;;;;;-1.34;52.71;100183.25;5072537;28;20040;-70
2022/01/08 10:54:59;;;;;;;3.92;1.67;;;;;;;-1.38;53.26;100188.63;5073737;28;20402;-67
2022/01/08 10:57:40;;;;;;;5.15;1.73;;;;;;;-1.41;52.94;100192.19;5074391;28;20097;-68
2022/01/08 11:00:12;;;;;;;3.30;1.52;;;;;;;-1.48;54.21;100191.47;5073024;28;20089;-68
2022/01/08 11:02:39;;;;;;;3.28;1.67;;;;;;;-1.45;53.54;100187.91;5073464;28;20039;-68
2022/01/08 11:05:07;;;;;;;6.22;2.15;;;;;;;-1.54;53.63;100156.63;5073586;28;20481;-69
2022/01/08 11:07:33;;;;;;;5.38;2.05;;;;;;;-1.48;54.13;100146.84;5073733;28;20032;-68
2022/01/08 11:10:03;;;;;;;4.68;1.80;;;;;;;-1.16;53.09;100188.94;5072637;28;20467;-67
2022/01/08 11:12:37;;;;;;;5.03;1.80;;;;;;;-1.13;52.94;100175.72;5055416;28;20477;-69
2022/01/08 11:17:45;;;;;;;4.68;2.05;;;;;;;-1.24;53.20;100196.13;5073807;28;20525;-67
2022/01/08 11:20:33;;;;;;;7.45;2.40;;;;;;;-1.33;53.56;100182.34;5073281;28;20436;-68
2022/01/08 11:23:01;;;;;;;3.60;1.70;;;;;;;-1.39;53.58;100187.75;5073616;28;20075;-69
2022/01/08 11:25:34;;;;;;;7.70;2.13;;;;;;;-1.33;53.52;100192.84;5073335;28;20063;-68
2022/01/08 11:28:07;;;;;;;2.78;1.75;;;;;;;-1.34;52.91;100200.75;5073005;28;20028;-68
2022/01/08 11:30:38;;;;;;;4.60;2.25;;;;;;;-1.39;53.92;100189.50;5073578;28;20032;-69
2022/01/08 11:33:11;;;;;;;4.05;2.08;;;;;;;-1.44;53.78;100208.03;5073211;28;20029;-68
2022/01/08 11:35:38;;;;;;;7.38;2.10;;;;;;;-1.48;53.84;100209.00;5073344;28;20351;-69
2022/01/08 11:38:07;;;;;;;5.68;2.25;;;;;;;-1.51;54.80;100219.56;5073605;28;20036;-69
2022/01/08 11:40:33;;;;;;;4.93;2.30;;;;;;;-1.72;54.36;100185.06;5073282;28;20024;-68
2022/01/08 11:43:02;;;;;;;5.75;2.22;;;;;;;-1.49;54.35;100229.16;5072588;28;20034;-69
2022/01/08 11:45:31;;;;;;;5.20;2.28;;;;;;;-1.48;54.44;100227.38;5073285;28;20032;-69
2022/01/08 11:47:58;;;;;;;5.45;2.35;;;;;;;-1.50;54.83;100235.31;5073348;28;20028;-69
2022/01/08 11:50:29;;;;;;;7.00;3.15;;;;;;;-1.49;54.84;100236.16;5072873;28;20052;-70
2022/01/08 11:53:19;;;;;;;9.05;2.90;;;;;;;-1.43;55.05;100238.66;5072702;28;20043;-69
2022/01/08 11:55:48;;;;;;;6.68;2.95;;;;;;;-1.47;53.95;100237.84;5073218;28;20074;-69